Time;durP1;ratioP1;P1;durP2;ratioP2;P2;SDS_P1;SDS_P2;PMS_P1;PMS_P2;Temp;Humidity;BMP_temperature;BMP_pressure;BME280_temperature;BME280_humidity;BME280_pressure;Samples;Min_cycle;Max_cycle;Signal;HPM_P1;HPM_P2
2023/06/17 00:00:08;;;;;;;;;;;;;;;17.31;51.78;101582.53;5091907;28;1091;-77
2023/06/17 00:02:34;;;;;;;;;;;;;;;17.27;51.65;101589.09;5081291;28;1902;-79
2023/06/17 00:04:59;;;;;;;;;;;;;;;17.22;51.91;101579.03;5077914;28;1273;-77
2023/06/17 00:07:24;;;;;;;;;;;;;;;17.18;52.79;101582.09;5087223;28;1093;-77
2023/06/17 00:09:50;;;;;;;;;;;;;;;17.12;52.84;101580.91;5084715;28;1364;-77
2023/06/17 00:12:15;;;;;;;;;;;;;;;17.09;53.42;101580.38;5077871;28;1089;-77
2023/06/17 00:14:41;;;;;;;;;;;;;;;17.05;53.21;101582.47;5087212;28;1389;-77
2023/06/17 00:17:08;;;;;;;;;;;;;;;17.02;54.00;101587.19;5079166;28;1400;-77
2023/06/17 00:19:35;;;;;;;;;;;;;;;16.96;54.33;101589.41;5089185;28;1670;-77
2023/06/17 00:22:00;;;;;;;;;;;;;;;16.93;54.61;101584.50;5079690;28;1905;-77
2023/06/17 00:24:25;;;;;;;;;;;;;;;16.87;55.08;101579.84;5085970;28;1516;-77
2023/06/17 00:26:51;;;;;;;;;;;;;;;16.83;54.90;101578.47;5090684;28;1104;-77
2023/06/17 00:29:16;;;;;;;;;;;;;;;16.82;55.33;101571.59;5085076;28;1329;-77
2023/06/17 00:31:41;;;;;;;;;;;;;;;16.79;55.41;101566.63;5082618;28;1391;-79
2023/06/17 00:34:06;;;;;;;;;;;;;;;16.78;55.51;101574.66;5075454;28;1500;-77
2023/06/17 00:36:31;;;;;;;;;;;;;;;16.76;55.68;101560.88;5076993;28;974;-77
2023/06/17 00:38:57;;;;;;;;;;;;;;;16.72;56.31;101565.59;5084064;28;1451;-77
2023/06/17 00:41:22;;;;;;;;;;;;;;;16.70;56.35;101559.66;5078241;28;1955;-77
2023/06/17 00:43:47;;;;;;;;;;;;;;;16.68;56.27;101558.97;5078075;28;1508;-77
2023/06/17 00:46:28;;;;;;;;;;;;;;;16.66;56.79;101563.53;5078076;28;1194;-77
2023/06/17 00:48:53;;;;;;;;;;;;;;;16.61;56.80;101557.91;5073595;28;1431;-77
2023/06/17 00:51:18;;;;;;;;;;;;;;;16.55;57.37;101559.31;5088471;28;1156;-77
2023/06/17 00:53:43;;;;;;;;;;;;;;;16.56;57.50;101554.88;5085019;28;1592;-76
2023/06/17 00:56:10;;;;;;;;;;;;;;;16.51;58.00;101557.13;5081289;28;1554;-77
2023/06/17 00:58:35;;;;;;;;;;;;;;;16.45;58.06;101559.34;5083837;28;1263;-77
2023/06/17 01:01:00;;;;;;;;;;;;;;;16.40;58.67;101561.59;5079345;28;1902;-77
2023/06/17 01:03:26;;;;;;;;;;;;;;;16.35;58.81;101558.59;5085515;28;1475;-77
2023/06/17 01:05:56;;;;;;;;;;;;;;;16.31;58.70;101559.84;5090559;28;1134;-77
2023/06/17 01:08:40;;;;;;;;;;;;;;;16.28;59.37;101551.44;5079093;28;918;-77
2023/06/17 01:11:09;;;;;;;;;;;;;;;16.22;59.66;101555.47;5078007;28;1395;-76
2023/06/17 01:13:35;;;;;;;;;;;;;;;16.20;59.90;101554.78;5083307;28;1313;-76
2023/06/17 01:16:01;;;;;;;;;;;;;;;16.18;60.06;101556.75;5085917;28;1280;-77
2023/06/17 01:18:27;;;;;;;;;;;;;;;16.15;59.83;101549.97;5081820;28;1364;-77
2023/06/17 01:20:53;;;;;;;;;;;;;;;16.14;60.44;101557.97;5093872;28;1953;-77
2023/06/17 01:23:25;;;;;;;;;;;;;;;16.13;60.22;101557.16;5086344;28;1384;-77
2023/06/17 01:25:51;;;;;;;;;;;;;;;16.12;60.61;101552.91;5091325;28;1139;-77
2023/06/17 01:28:16;;;;;;;;;;;;;;;16.11;60.65;101545.16;5080411;28;1417;-77
2023/06/17 01:30:47;;;;;;;;;;;;;;;16.08;61.33;101555.94;5077801;28;1252;-77
2023/06/17 01:33:13;;;;;;;;;;;;;;;16.02;61.32;101551.28;5082515;28;1382;-77
2023/06/17 01:35:40;;;;;;;;;;;;;;;16.01;61.75;101549.63;5082146;28;1564;-77
2023/06/17 01:38:07;;;;;;;;;;;;;;;15.99;61.74;101546.31;5085116;28;1712;-78
2023/06/17 01:40:33;;;;;;;;;;;;;;;15.98;62.14;101549.91;5080017;28;1305;-77
2023/06/17 01:43:01;;;;;;;;;;;;;;;15.95;62.40;101544.97;5082099;28;1953;-77
2023/06/17 01:45:26;;;;;;;;;;;;;;;15.89;62.73;101541.97;5086754;28;1221;-77
2023/06/17 01:47:52;;;;;;;;;;;;;;;15.86;63.00;101541.41;5076772;28;1464;-77
2023/06/17 01:50:19;;;;;;;;;;;;;;;15.82;63.06;101540.84;5081784;28;1516;-77
2023/06/17 01:52:45;;;;;;;;;;;;;;;15.77;63.34;101545.72;5085264;28;1387;-75
2023/06/17 01:55:10;;;;;;;;;;;;;;;15.75;63.67;101542.41;5083063;28;1269;-77
2023/06/17 01:57:36;;;;;;;;;;;;;;;15.74;63.84;101548.59;5098435;28;1147;-77
2023/06/17 02:00:01;;;;;;;;;;;;;;;15.72;63.98;101547.94;5077394;28;1348;-77
2023/06/17 02:02:26;;;;;;;;;;;;;;;15.69;64.50;101545.56;5090116;28;1949;-77
2023/06/17 02:04:51;;;;;;;;;;;;;;;15.67;65.03;101542.28;5084635;28;1655;-76
2023/06/17 02:07:17;;;;;;;;;;;;;;;15.64;64.69;101537.31;5081510;28;1353;-76
2023/06/17 02:09:54;;;;;;;;;;;;;;;15.60;65.13;101541.19;5133342;22;1799;-81
2023/06/17 02:12:29;;;;;;;;;;;;;;;15.56;65.30;101539.78;5039514;28;1369;-80
2023/06/17 02:15:29;;;;;;;;;;;;;;;;;;;;;
2023/06/17 02:18:06;;;;;;;;;;;;;;;15.55;65.84;101538.16;5033964;28;1269;-80
2023/06/17 02:20:59;;;;;;;;;;;;;;;15.53;66.01;101535.66;5036005;28;1240;-80
2023/06/17 02:23:45;;;;;;;;;;;;;;;15.49;65.99;101536.09;5025337;28;1621;-80
2023/06/17 02:26:19;;;;;;;;;;;;;;;15.48;66.21;101534.41;5037931;28;1216;-80
2023/06/17 02:28:48;;;;;;;;;;;;;;;15.46;66.16;101531.13;5037267;28;1298;-80
2023/06/17 02:34:27;;;;;;;;;;;;;;;15.39;66.87;101529.09;5037244;28;1463;-79
2023/06/17 02:37:29;;;;;;;;;;;;;;;15.37;66.84;101523.19;5039600;28;1380;-80
2023/06/17 02:40:35;;;;;;;;;;;;;;;15.35;67.55;101527.69;5054469;28;1422;-80
2023/06/17 02:43:19;;;;;;;;;;;;;;;15.31;67.32;101523.72;5010386;28;2015;-80
2023/06/17 02:46:21;;;;;;;;;;;;;;;15.31;67.45;101526.34;5037801;28;1431;-80
2023/06/17 02:49:05;;;;;;;;;;;;;;;;;;;;;
2023/06/17 02:51:50;;;;;;;;;;;;;;;;;;;;;
2023/06/17 02:54:30;;;;;;;;;;;;;;;15.24;68.17;101524.41;5034128;28;1345;-80
2023/06/17 02:57:16;;;;;;;;;;;;;;;15.22;68.28;101514.09;5037849;28;1288;-80
2023/06/17 03:00:26;;;;;;;;;;;;;;;15.17;68.52;101510.25;5026120;28;1172;-80
2023/06/17 03:06:19;;;;;;;;;;;;;;;;;;;;;
2023/06/17 03:12:04;;;;;;;;;;;;;;;15.07;68.79;101513.69;5032971;28;1584;-82
2023/06/17 03:14:40;;;;;;;;;;;;;;;15.05;68.85;101504.34;5028230;28;1376;-82
2023/06/17 03:17:10;;;;;;;;;;;;;;;15.04;68.96;101507.94;5037930;28;1299;-82
2023/06/17 03:22:40;;;;;;;;;;;;;;;15.03;69.03;101508.88;5028588;28;2011;-82
2023/06/17 03:25:14;;;;;;;;;;;;;;;15.02;69.10;101504.59;5035665;28;1383;-82
2023/06/17 03:28:01;;;;;;;;;;;;;;;15.02;69.33;101509.81;5036532;28;1455;-82
2023/06/17 03:33:51;;;;;;;;;;;;;;;15.03;69.22;101506.28;5010000;28;1419;-82
2023/06/17 03:36:28;;;;;;;;;;;;;;;15.01;69.54;101506.38;5014913;28;1542;-82
2023/06/17 03:39:14;;;;;;;;;;;;;;;;;;;;;
2023/06/17 03:42:16;;;;;;;;;;;;;;;;;;;;;
2023/06/17 03:44:54;;;;;;;;;;;;;;;;;;;;;
2023/06/17 03:47:51;;;;;;;;;;;;;;;14.91;69.65;101496.91;5021113;28;1318;-82
2023/06/17 03:50:29;;;;;;;;;;;;;;;14.98;69.78;101508.47;5005113;28;1499;-82
2023/06/17 03:53:09;;;;;;;;;;;;;;;14.96;69.73;101505.97;5037989;28;1313;-82
2023/06/17 03:56:04;;;;;;;;;;;;;;;14.96;69.37;101507.75;5037165;28;1467;-82
2023/06/17 03:58:48;;;;;;;;;;;;;;;15.02;69.21;101504.59;5054877;28;1445;-82
2023/06/17 04:01:25;;;;;;;;;;;;;;;15.05;69.24;101499.13;5035746;28;1894;-82
2023/06/17 04:10:38;;;;;;;;;;;;;;;15.11;69.17;101503.78;5004697;28;1299;-82
2023/06/17 04:13:32;;;;;;;;;;;;;;;15.14;69.03;101503.53;5003336;28;1270;-82
2023/06/17 04:16:25;;;;;;;;;;;;;;;15.08;69.11;101493.59;5007642;28;1497;-82
2023/06/17 04:19:14;;;;;;;;;;;;;;;15.15;69.43;101505.16;5036751;28;1367;-82
2023/06/17 04:21:54;;;;;;;;;;;;;;;15.19;69.22;101501.28;5019114;28;1894;-82
2023/06/17 04:24:51;;;;;;;;;;;;;;;15.22;69.27;101506.25;5011443;28;1328;-82
2023/06/17 04:28:10;;;;;;;;;;;;;;;;;;;;;
2023/06/17 04:30:40;;;;;;;;;;;;;;;15.27;69.81;101513.69;5014296;28;1263;-82
2023/06/17 04:33:30;;;;;;;;;;;;;;;15.28;69.58;101510.94;5028020;28;1299;-82
2023/06/17 04:36:25;;;;;;;;;;;;;;;15.32;69.92;101512.31;5016197;28;1472;-82
2023/06/17 04:42:16;;;;;;;;;;;;;;;15.40;70.30;101504.59;5015714;28;1902;-82
2023/06/17 04:48:15;;;;;;;;;;;;;;;;;;;;;
2023/06/17 04:51:12;;;;;;;;;;;;;;;15.50;69.57;101495.91;5021827;28;1341;-82
2023/06/17 04:54:07;;;;;;;;;;;;;;;15.54;69.88;101499.88;5008839;28;1449;-82
2023/06/17 04:56:33;;;;;;;;;;;;;;;15.56;69.60;101498.78;5089484;22;2013;-74
2023/06/17 04:58:58;;;;;;;;;;;;;;;15.59;69.47;101497.66;5042574;28;1356;-73
2023/06/17 05:01:23;;;;;;;;;;;;;;;15.60;69.83;101501.94;5042695;28;1977;-73
2023/06/17 05:03:49;;;;;;;;;;;;;;;15.63;69.24;101499.06;5044362;28;1454;-73
2023/06/17 05:06:14;;;;;;;;;;;;;;;15.66;69.78;101498.81;5040106;28;1045;-73
2023/06/17 05:08:39;;;;;;;;;;;;;;;15.70;69.33;101500.16;5041498;28;1048;-73
2023/06/17 05:11:04;;;;;;;;;;;;;;;15.75;68.87;101497.94;5047514;28;1420;-73
2023/06/17 05:13:30;;;;;;;;;;;;;;;15.81;69.23;101507.00;5043238;28;1477;-74
2023/06/17 05:15:55;;;;;;;;;;;;;;;15.86;69.05;101510.00;5042503;28;1172;-73
2023/06/17 05:18:20;;;;;;;;;;;;;;;15.90;69.12;101511.38;5061910;28;1255;-74
2023/06/17 05:20:45;;;;;;;;;;;;;;;15.95;70.60;101513.59;5043035;28;1082;-76
2023/06/17 05:23:11;;;;;;;;;;;;;;;15.98;69.38;101513.28;5048137;28;1889;-75
2023/06/17 05:25:36;;;;;;;;;;;;;;;16.01;69.25;101515.63;5050631;28;1259;-74
2023/06/17 05:28:01;;;;;;;;;;;;;;;16.01;69.11;101510.38;5039214;28;2205;-73
2023/06/17 05:30:26;;;;;;;;;;;;;;;16.02;69.13;101512.84;5048681;28;1557;-71
2023/06/17 05:32:51;;;;;;;;;;;;;;;16.04;68.82;101512.69;5044717;28;1399;-74
2023/06/17 05:35:17;;;;;;;;;;;;;;;16.06;69.79;101510.78;5042054;28;1447;-75
2023/06/17 05:37:42;;;;;;;;;;;;;;;16.12;69.22;101516.25;5044523;28;1325;-74
2023/06/17 05:40:07;;;;;;;;;;;;;;;16.13;70.65;101514.47;5045802;28;1305;-78
2023/06/17 05:42:33;;;;;;;;;;;;;;;16.16;71.66;101506.31;5046946;28;1941;-73
2023/06/17 05:44:58;;;;;;;;;;;;;;;16.16;72.68;101507.13;5043886;28;1070;-74
2023/06/17 05:47:23;;;;;;;;;;;;;;;16.18;72.62;101507.00;5046286;28;1453;-76
2023/06/17 05:49:48;;;;;;;;;;;;;;;16.25;72.70;101505.44;5046525;28;1462;-73
2023/06/17 05:52:13;;;;;;;;;;;;;;;16.34;72.01;101509.78;5047429;28;1706;-74
2023/06/17 05:54:39;;;;;;;;;;;;;;;16.42;71.52;101509.91;5046035;28;1247;-73
2023/06/17 05:57:04;;;;;;;;;;;;;;;16.50;71.58;101513.59;5043359;28;1332;-73
2023/06/17 05:59:30;;;;;;;;;;;;;;;16.52;71.27;101506.41;5044186;28;1453;-73
2023/06/17 06:01:55;;;;;;;;;;;;;;;16.61;72.42;101521.22;5042957;28;1961;-73
2023/06/17 06:04:20;;;;;;;;;;;;;;;16.69;70.65;101513.47;5038670;28;1316;-74
2023/06/17 06:06:45;;;;;;;;;;;;;;;16.76;70.39;101513.75;5039427;28;1638;-74
2023/06/17 06:09:10;;;;;;;;;;;;;;;16.85;70.16;101526.75;5043727;28;1371;-75
2023/06/17 06:11:36;;;;;;;;;;;;;;;16.94;69.62;101518.00;5044147;28;1408;-76
2023/06/17 06:14:01;;;;;;;;;;;;;;;17.01;69.39;101522.66;5039512;28;1538;-75
2023/06/17 06:16:26;;;;;;;;;;;;;;;17.08;68.63;101507.97;5034578;28;1254;-75
2023/06/17 06:18:52;;;;;;;;;;;;;;;17.14;68.49;101517.84;5045752;28;1318;-74
2023/06/17 06:21:17;;;;;;;;;;;;;;;17.18;68.23;101514.75;5041754;28;1918;-75
2023/06/17 06:23:46;;;;;;;;;;;;;;;17.23;67.88;101520.38;5037992;28;1656;-74
2023/06/17 06:26:12;;;;;;;;;;;;;;;17.30;67.83;101520.59;5037331;28;1495;-76
2023/06/17 06:28:37;;;;;;;;;;;;;;;17.38;67.34;101518.06;5050177;28;1652;-75
2023/06/17 06:31:03;;;;;;;;;;;;;;;17.47;67.32;101511.88;5040156;28;1452;-74
2023/06/17 06:33:28;;;;;;;;;;;;;;;17.56;67.42;101512.75;5044923;28;1525;-76
2023/06/17 06:35:53;;;;;;;;;;;;;;;17.64;66.47;101519.84;5039272;28;1234;-74
2023/06/17 06:38:18;;;;;;;;;;;;;;;17.68;66.55;101531.69;5043989;28;1555;-75
2023/06/17 06:40:43;;;;;;;;;;;;;;;17.76;66.15;101518.66;5046317;28;1447;-74
2023/06/17 06:43:09;;;;;;;;;;;;;;;17.81;65.79;101526.06;5043153;28;1955;-75
2023/06/17 06:45:34;;;;;;;;;;;;;;;17.88;65.20;101522.66;5034863;28;1077;-75
2023/06/17 06:47:59;;;;;;;;;;;;;;;17.92;64.62;101516.13;5044888;28;1498;-74
2023/06/17 06:50:25;;;;;;;;;;;;;;;18.00;64.19;101520.56;5040109;28;1556;-74
2023/06/17 06:52:50;;;;;;;;;;;;;;;18.04;64.34;101517.47;5037860;28;1473;-75
2023/06/17 06:55:15;;;;;;;;;;;;;;;18.11;61.97;101511.59;5046580;28;1514;-74
2023/06/17 06:57:40;;;;;;;;;;;;;;;18.18;63.51;101523.97;5047445;28;1276;-74
2023/06/17 07:00:08;;;;;;;;;;;;;;;18.26;62.19;101515.28;5037492;28;1135;-75
2023/06/17 07:02:34;;;;;;;;;;;;;;;18.36;61.90;101525.66;5038772;28;1955;-75
2023/06/17 07:08:02;;;;;;;;;;;;;;;18.59;60.86;101518.84;5043488;28;1018;-76
2023/06/17 07:13:30;;;;;;;;;;;;;;;18.78;58.86;101530.91;5009701;23;1781;-84
2023/06/17 07:15:55;;;;;;;;;;;;;;;18.87;56.83;101522.06;5005459;28;1081;-85
2023/06/17 07:18:22;;;;;;;;;;;;;;;18.94;55.58;101515.16;5013504;28;1235;-84
2023/06/17 07:20:49;;;;;;;;;;;;;;;19.01;54.68;101521.41;5012692;28;1496;-83
2023/06/17 07:23:14;;;;;;;;;;;;;;;19.07;56.22;101530.44;5006681;28;1957;-83
2023/06/17 07:25:39;;;;;;;;;;;;;;;19.25;56.92;101523.19;5015597;28;1248;-85
2023/06/17 07:28:07;;;;;;;;;;;;;;;19.25;55.72;101519.75;5015480;28;1497;-85
2023/06/17 07:30:32;;;;;;;;;;;;;;;19.37;53.31;101515.78;5011520;28;1481;-85
2023/06/17 07:32:57;;;;;;;;;;;;;;;19.44;52.12;101522.06;5004755;28;1407;-85
2023/06/17 07:35:22;;;;;;;;;;;;;;;19.55;52.38;101524.31;5003741;28;1639;-85
2023/06/17 07:37:50;;;;;;;;;;;;;;;19.60;52.52;101522.03;5001828;28;1254;-85
2023/06/17 07:40:18;;;;;;;;;;;;;;;19.75;53.34;101521.38;5007639;28;1398;-85
2023/06/17 07:43:06;;;;;;;;;;;;;;;19.84;48.55;101522.97;5007512;28;1882;-86
2023/06/17 07:45:32;;;;;;;;;;;;;;;19.89;50.63;101520.66;5008527;28;1374;-86
2023/06/17 07:48:03;;;;;;;;;;;;;;;20.01;51.54;101521.94;5025853;28;1343;-86
2023/06/17 07:50:40;;;;;;;;;;;;;;;20.15;51.69;101517.78;5007036;28;1282;-85
2023/06/17 07:53:05;;;;;;;;;;;;;;;20.26;49.34;101514.78;5003356;28;1514;-85
2023/06/17 07:55:32;;;;;;;;;;;;;;;20.36;49.00;101517.22;5004011;28;1687;-86
2023/06/17 07:57:57;;;;;;;;;;;;;;;20.42;50.82;101512.06;5003176;28;1566;-85
2023/06/17 08:00:22;;;;;;;;;;;;;;;20.50;46.89;101513.84;5008840;28;1410;-85
2023/06/17 08:02:48;;;;;;;;;;;;;;;20.61;47.77;101513.47;5011146;28;1922;-85
2023/06/17 08:05:22;;;;;;;;;;;;;;;20.66;43.70;101511.13;5009132;28;1301;-86
2023/06/17 08:07:47;;;;;;;;;;;;;;;20.74;48.14;101510.25;5024933;28;1758;-85
2023/06/17 08:10:12;;;;;;;;;;;;;;;20.86;45.60;101513.28;5002342;28;1420;-85
2023/06/17 08:12:37;;;;;;;;;;;;;;;20.94;43.73;101516.69;5017717;28;1353;-86
2023/06/17 08:15:03;;;;;;;;;;;;;;;21.00;45.06;101509.91;5009462;28;1179;-85
2023/06/17 08:17:28;;;;;;;;;;;;;;;21.07;46.41;101510.81;5018157;28;1506;-85
2023/06/17 08:19:54;;;;;;;;;;;;;;;21.27;44.98;101505.03;5015176;28;1577;-85
2023/06/17 08:22:20;;;;;;;;;;;;;;;21.19;45.59;101508.59;5009893;28;1969;-86
2023/06/17 08:24:45;;;;;;;;;;;;;;;21.34;44.93;101509.47;5003968;28;1526;-85
2023/06/17 08:27:13;;;;;;;;;;;;;;;21.33;44.09;101504.34;5009811;28;1367;-85
2023/06/17 08:29:38;;;;;;;;;;;;;;;21.42;44.37;101504.13;5008158;28;1309;-85
2023/06/17 08:32:06;;;;;;;;;;;;;;;21.49;42.83;101501.56;5015150;28;1255;-84
2023/06/17 08:34:32;;;;;;;;;;;;;;;21.59;40.58;101515.34;5004428;28;1533;-85
2023/06/17 08:36:57;;;;;;;;;;;;;;;21.67;42.99;101507.31;5009676;28;1366;-85
2023/06/17 08:39:23;;;;;;;;;;;;;;;21.79;42.97;101504.22;5008185;28;1486;-85
2023/06/17 08:41:50;;;;;;;;;;;;;;;21.91;43.65;101500.16;5006736;28;1949;-86
2023/06/17 08:44:18;;;;;;;;;;;;;;;22.00;42.70;101502.47;5010595;28;1517;-85
2023/06/17 08:46:44;;;;;;;;;;;;;;;22.13;42.96;101501.84;5011432;28;1424;-86
2023/06/17 08:49:10;;;;;;;;;;;;;;;22.29;42.51;101507.94;5005843;28;1633;-85
2023/06/17 08:51:38;;;;;;;;;;;;;;;22.35;41.88;101504.56;5003813;28;1561;-85
2023/06/17 08:54:03;;;;;;;;;;;;;;;22.43;42.41;101504.47;5008343;28;1254;-85
2023/06/17 08:56:29;;;;;;;;;;;;;;;22.55;41.76;101504.78;5001921;28;1415;-85
2023/06/17 08:58:55;;;;;;;;;;;;;;;22.68;41.21;101489.88;5003304;28;1492;-85
2023/06/17 09:01:27;;;;;;;;;;;;;;;22.87;39.81;101498.19;5007993;28;1949;-85
2023/06/17 09:03:52;;;;;;;;;;;;;;;23.01;39.80;101498.16;4998450;28;1641;-84
2023/06/17 09:06:18;;;;;;;;;;;;;;;23.02;38.11;101498.97;5012282;28;1314;-85
2023/06/17 09:09:11;;;;;;;;;;;;;;;22.99;36.13;101500.16;5016005;28;1354;-84
2023/06/17 09:11:36;;;;;;;;;;;;;;;23.02;37.14;101501.59;5009748;28;1090;-85
2023/06/17 09:14:02;;;;;;;;;;;;;;;23.04;36.74;101502.22;5010749;28;1173;-85
2023/06/17 09:16:30;;;;;;;;;;;;;;;23.11;38.36;101505.75;5033341;28;1545;-85
2023/06/17 09:19:10;;;;;;;;;;;;;;;23.21;36.44;101511.53;5013491;28;1498;-85
2023/06/17 09:21:36;;;;;;;;;;;;;;;23.29;37.31;101508.75;5017605;28;1957;-86
2023/06/17 09:24:03;;;;;;;;;;;;;;;23.39;37.40;101503.09;5008620;28;1034;-85
2023/06/17 09:26:38;;;;;;;;;;;;;;;23.52;37.47;101502.41;4999966;28;1514;-87
2023/06/17 09:29:07;;;;;;;;;;;;;;;23.64;38.27;101500.06;5011552;28;1235;-86
2023/06/17 09:31:51;;;;;;;;;;;;;;;23.78;36.70;101507.88;5009844;28;1431;-86
2023/06/17 09:34:16;;;;;;;;;;;;;;;23.78;37.28;101513.16;5002719;28;1557;-86
2023/06/17 09:36:48;;;;;;;;;;;;;;;23.82;35.86;101503.81;5001601;28;1674;-86
2023/06/17 09:39:16;;;;;;;;;;;;;;;23.91;36.72;101501.00;5008026;28;1402;-87
2023/06/17 09:41:42;;;;;;;;;;;;;;;23.96;37.05;101507.34;5004747;28;1953;-88
2023/06/17 09:44:14;;;;;;;;;;;;;;;24.03;36.66;101507.41;5012291;28;1407;-87
2023/06/17 09:46:46;;;;;;;;;;;;;;;24.03;36.59;101500.25;5003067;28;1494;-86
2023/06/17 09:49:15;;;;;;;;;;;;;;;24.14;35.97;101506.81;5011902;28;1356;-86
2023/06/17 09:51:41;;;;;;;;;;;;;;;24.18;36.71;101505.41;5007003;28;1149;-86
2023/06/17 09:54:07;;;;;;;;;;;;;;;24.17;35.06;101502.94;5009282;28;1406;-88
2023/06/17 09:56:33;;;;;;;;;;;;;;;24.18;35.41;101508.06;5009725;28;1338;-86
2023/06/17 09:58:58;;;;;;;;;;;;;;;24.13;35.84;101505.16;5009923;28;1570;-86
2023/06/17 10:01:30;;;;;;;;;;;;;;;24.30;35.72;101503.81;5023166;28;1890;-86
2023/06/17 10:03:56;;;;;;;;;;;;;;;24.31;35.40;101508.09;5018923;28;1458;-86
2023/06/17 10:06:25;;;;;;;;;;;;;;;24.41;36.78;101502.44;5014538;28;1457;-87
2023/06/17 10:08:52;;;;;;;;;;;;;;;24.57;36.57;101495.97;5017968;28;1446;-87
2023/06/17 10:11:19;;;;;;;;;;;;;;;24.70;36.22;101500.47;5013036;28;1096;-85
2023/06/17 10:13:45;;;;;;;;;;;;;;;24.85;36.09;101493.97;5017115;28;1297;-87
2023/06/17 10:16:15;;;;;;;;;;;;;;;25.02;35.33;101493.56;5011210;28;1891;-86
2023/06/17 10:18:42;;;;;;;;;;;;;;;25.06;34.82;101489.50;5015520;28;1090;-87
2023/06/17 10:21:09;;;;;;;;;;;;;;;25.05;33.17;101493.97;5012390;28;1902;-86
2023/06/17 10:23:46;;;;;;;;;;;;;;;;;;;;;
2023/06/17 10:26:12;;;;;;;;;;;;;;;25.08;34.94;101493.59;5015199;28;1470;-86
2023/06/17 10:28:45;;;;;;;;;;;;;;;25.26;34.19;101485.00;5018569;28;1240;-87
2023/06/17 10:31:37;;;;;;;;;;;;;;;25.24;34.11;101481.75;5009136;28;1625;-87
2023/06/17 10:34:03;;;;;;;;;;;;;;;25.49;34.52;101473.13;5009445;28;1360;-85
2023/06/17 10:36:29;;;;;;;;;;;;;;;25.49;33.42;101484.56;5007129;28;1545;-85
2023/06/17 10:39:05;;;;;;;;;;;;;;;25.57;34.69;101475.53;5011568;28;1225;-87
2023/06/17 10:41:40;;;;;;;;;;;;;;;25.61;32.51;101479.41;5005050;28;1887;-87
2023/06/17 10:44:24;;;;;;;;;;;;;;;25.61;33.52;101476.75;5015395;28;1297;-87
2023/06/17 10:46:50;;;;;;;;;;;;;;;25.62;33.83;101473.06;5009318;28;1594;-87
2023/06/17 10:49:16;;;;;;;;;;;;;;;25.67;33.05;101470.59;5008153;28;1469;-86
2023/06/17 10:51:46;;;;;;;;;;;;;;;25.74;33.18;101468.75;5010291;28;1326;-86
2023/06/17 10:54:11;;;;;;;;;;;;;;;25.83;34.01;101467.53;5007464;28;1459;-87
2023/06/17 10:56:52;;;;;;;;;;;;;;;26.00;33.53;101459.06;5008098;28;1842;-85
2023/06/17 10:59:28;;;;;;;;;;;;;;;26.17;33.16;101465.53;5007265;28;1444;-86
2023/06/17 11:02:05;;;;;;;;;;;;;;;26.24;33.07;101460.97;5021260;28;1890;-87
2023/06/17 11:04:33;;;;;;;;;;;;;;;26.35;33.22;101456.84;5013672;28;1423;-87
2023/06/17 11:07:20;;;;;;;;;;;;;;;26.43;33.73;101454.75;5003935;28;1600;-88
2023/06/17 11:09:45;;;;;;;;;;;;;;;26.39;31.47;101453.53;5010367;28;1085;-87
2023/06/17 11:12:15;;;;;;;;;;;;;;;26.43;33.74;101454.75;5013799;28;1141;-87
2023/06/17 11:14:55;;;;;;;;;;;;;;;26.60;33.15;101449.72;5012588;28;1656;-88
2023/06/17 11:17:25;;;;;;;;;;;;;;;26.70;32.94;101441.25;5010419;28;1350;-86
2023/06/17 11:19:50;;;;;;;;;;;;;;;26.76;31.84;101443.06;5012855;28;1214;-86
2023/06/17 11:22:15;;;;;;;;;;;;;;;26.69;31.46;101442.31;5009588;28;1886;-87
2023/06/17 11:24:47;;;;;;;;;;;;;;;26.46;29.25;101442.88;5012661;28;1755;-87
2023/06/17 11:27:12;;;;;;;;;;;;;;;26.46;30.92;101443.69;5010187;28;1109;-86
2023/06/17 11:29:40;;;;;;;;;;;;;;;26.56;30.83;101437.91;5005732;28;1034;-87
2023/06/17 11:32:05;;;;;;;;;;;;;;;26.67;30.56;101433.72;5008051;28;1554;-87
2023/06/17 11:34:31;;;;;;;;;;;;;;;26.72;29.25;101436.53;5009027;28;1476;-87
2023/06/17 11:37:01;;;;;;;;;;;;;;;26.78;30.93;101430.34;5006780;28;1355;-88
2023/06/17 11:39:33;;;;;;;;;;;;;;;27.03;29.41;101427.66;5004140;28;1588;-86
2023/06/17 11:42:01;;;;;;;;;;;;;;;26.91;30.90;101430.25;5008458;28;1894;-86
2023/06/17 11:44:31;;;;;;;;;;;;;;;26.86;30.19;101416.78;5009272;28;1570;-88
2023/06/17 11:46:56;;;;;;;;;;;;;;;26.69;29.23;101415.69;5009454;28;1333;-88
2023/06/17 11:49:25;;;;;;;;;;;;;;;26.61;30.62;101408.81;5009171;28;1422;-86
2023/06/17 11:51:53;;;;;;;;;;;;;;;26.89;30.84;101418.97;5006603;28;1555;-87
2023/06/17 11:54:19;;;;;;;;;;;;;;;27.12;30.04;101414.91;5007225;28;1418;-88
2023/06/17 11:56:56;;;;;;;;;;;;;;;27.09;29.00;101410.84;5017619;28;1456;-88
2023/06/17 11:59:22;;;;;;;;;;;;;;;26.97;29.56;101418.72;5006736;28;1236;-88
2023/06/17 12:01:55;;;;;;;;;;;;;;;26.94;28.80;101408.50;5020985;28;1890;-87
2023/06/17 12:04:24;;;;;;;;;;;;;;;26.96;29.11;101411.75;5010371;28;1246;-87
2023/06/17 12:06:53;;;;;;;;;;;;;;;27.02;29.52;101409.25;5016132;28;1408;-89
2023/06/17 12:09:19;;;;;;;;;;;;;;;27.10;29.32;101406.34;5005423;28;1364;-88
2023/06/17 12:11:54;;;;;;;;;;;;;;;;;;;;;
2023/06/17 12:14:20;;;;;;;;;;;;;;;27.23;28.22;101396.34;5014161;28;1241;-88
2023/06/17 12:19:31;;;;;;;;;;;;;;;27.26;28.08;101405.75;5009849;28;1552;-88
2023/06/17 12:22:11;;;;;;;;;;;;;;;27.33;28.00;101401.16;5015987;28;1970;-89
2023/06/17 12:24:56;;;;;;;;;;;;;;;27.48;27.99;101403.47;5008691;28;1758;-89
2023/06/17 12:27:29;;;;;;;;;;;;;;;27.58;28.49;101392.25;5012308;28;1551;-89
2023/06/17 12:29:59;;;;;;;;;;;;;;;27.45;28.09;101391.38;5000550;28;1299;-90
2023/06/17 12:32:24;;;;;;;;;;;;;;;27.57;28.52;101395.97;5011693;28;1541;-89
2023/06/17 12:34:50;;;;;;;;;;;;;;;27.67;28.31;101390.94;5008351;28;1597;-89
2023/06/17 12:37:18;;;;;;;;;;;;;;;27.63;27.16;101384.41;5010222;28;1417;-89
2023/06/17 12:39:46;;;;;;;;;;;;;;;27.62;28.09;101382.78;5006996;28;1683;-89
2023/06/17 12:42:14;;;;;;;;;;;;;;;27.72;27.13;101377.78;5010492;28;1914;-88
2023/06/17 12:44:39;;;;;;;;;;;;;;;27.81;26.82;101379.06;5005429;28;1379;-89
2023/06/17 12:47:05;;;;;;;;;;;;;;;27.82;27.40;101378.06;5007557;28;1346;-87
2023/06/17 12:49:36;;;;;;;;;;;;;;;27.77;27.33;101373.41;5006505;28;1343;-89
2023/06/17 12:52:01;;;;;;;;;;;;;;;27.76;24.74;101369.09;5009821;28;1181;-88
2023/06/17 12:54:26;;;;;;;;;;;;;;;27.67;26.30;101369.59;5004430;28;1263;-89
2023/06/17 12:56:52;;;;;;;;;;;;;;;27.69;26.52;101370.19;5005781;28;1487;-87
2023/06/17 12:59:17;;;;;;;;;;;;;;;27.75;26.35;101367.44;5001332;28;1407;-89
2023/06/17 13:01:43;;;;;;;;;;;;;;;27.76;26.46;101362.97;5008484;28;1965;-88
2023/06/17 13:04:08;;;;;;;;;;;;;;;28.03;26.63;101358.84;5009628;28;1146;-88
2023/06/17 13:06:37;;;;;;;;;;;;;;;28.32;26.60;101356.38;5015478;28;1281;-88
2023/06/17 13:09:12;;;;;;;;;;;;;;;28.46;25.36;101357.81;4999752;28;1418;-90
2023/06/17 13:11:43;;;;;;;;;;;;;;;28.33;26.10;101358.03;5012459;28;1063;-89
2023/06/17 13:14:08;;;;;;;;;;;;;;;28.34;26.05;101359.66;5018717;28;1277;-89
2023/06/17 13:16:34;;;;;;;;;;;;;;;28.40;25.84;101356.06;5015781;28;1323;-89
2023/06/17 13:19:02;;;;;;;;;;;;;;;28.46;25.66;101357.00;5015336;28;1481;-89
2023/06/17 13:21:28;;;;;;;;;;;;;;;28.48;25.89;101344.25;5016853;28;1964;-89
2023/06/17 13:23:53;;;;;;;;;;;;;;;28.57;26.66;101349.00;5020714;28;1531;-88
2023/06/17 13:26:22;;;;;;;;;;;;;;;28.54;25.59;101344.13;5010063;28;1269;-89
2023/06/17 13:28:47;;;;;;;;;;;;;;;28.51;24.19;101344.59;5020503;28;1335;-89
2023/06/17 13:31:12;;;;;;;;;;;;;;;28.54;25.86;101349.44;5013570;28;1273;-89
2023/06/17 13:33:38;;;;;;;;;;;;;;;28.37;24.69;101351.19;5012866;28;1506;-86
2023/06/17 13:36:03;;;;;;;;;;;;;;;28.29;23.88;101346.16;5013830;28;1395;-86
2023/06/17 13:38:28;;;;;;;;;;;;;;;28.31;25.27;101349.41;5012193;28;1357;-86
2023/06/17 13:40:53;;;;;;;;;;;;;;;28.31;25.48;101354.75;5011696;28;1835;-86
2023/06/17 13:43:18;;;;;;;;;;;;;;;28.37;25.65;101343.19;5007818;28;1906;-86
2023/06/17 13:45:47;;;;;;;;;;;;;;;28.43;25.13;101342.25;5013173;28;1346;-87
2023/06/17 13:48:14;;;;;;;;;;;;;;;28.43;25.73;101347.59;5026895;28;1593;-86
2023/06/17 13:50:40;;;;;;;;;;;;;;;28.53;25.61;101347.84;5008521;28;1189;-85
2023/06/17 13:53:05;;;;;;;;;;;;;;;28.68;26.03;101338.56;5007444;28;1293;-86